»·PEaware :: N737WA KSMX-KBFL

N737WA :: KSMX-KBFL

FLIGHT INFORMATION

Flight Status: Arrived
Operator: Privately registered:
United States
More flights under this callsign
Pilot: Shane B. (33724)
Aircraft: CESSNA 172 SKYHAWK
(C172)
More flights by this aircraft type
Origin: KSMX Santa Maria Pub/Capt Hancock
United States
Destination: KBFL Meadows
United States
More flights between these airports :: More routes between these airports
Route: FLW
File this flight plan on PilotEdge
Remarks:
Altitude:
(Current/Filed)
7,500ft
Speed:
(Current/Filed)
120kts
Departed: 14-Feb-21 08:14 PM
Arrived: 14-Feb-21 08:58 PM
Distance/Time
Traveled:
76nm/0:44
Distance/Time
To Go:
Arrived

Flight Plot

Page will automatically refresh every two minutes.


Map Options




Map Legend


Flown Route
Filed Route
Departure Airport
Arrival Airport
Navaid (VOR, NDB)
Fix

Horizontal Profiles

Position Reports

Time Latitude Longitude Heading Altitude Ground
Speed
14-Feb-21 20:02 34.895642 -120.444789 314 265ft 0kts
14-Feb-21 20:03 34.895642 -120.444789 314 265ft 0kts
14-Feb-21 20:04 34.895642 -120.444789 314 265ft 0kts
14-Feb-21 20:05 34.895642 -120.444789 314 265ft 0kts
14-Feb-21 20:06 34.895642 -120.444789 314 265ft 0kts
14-Feb-21 20:07 34.895642 -120.444789 314 265ft 0kts
14-Feb-21 20:08 34.895642 -120.444789 314 265ft 0kts
14-Feb-21 20:09 34.895642 -120.444789 314 265ft 0kts
14-Feb-21 20:10 34.895281 -120.445013 128 265ft 7kts
14-Feb-21 20:11 34.894284 -120.445197 175 265ft 0kts
14-Feb-21 20:12 34.893447 -120.445213 182 265ft 0kts
14-Feb-21 20:13 34.893447 -120.445213 182 265ft 0kts
14-Feb-21 20:14 34.896608 -120.450279 315 336ft 71kts
14-Feb-21 20:15 34.912733 -120.456423 51 1154ft 98kts
14-Feb-21 20:15 34.912357 -120.428646 85 1873ft 104kts
14-Feb-21 20:17 34.922420 -120.398502 3 2754ft 81kts
14-Feb-21 20:18 34.930248 -120.371467 93 3534ft 105kts
14-Feb-21 20:18 34.922949 -120.343410 102 4175ft 100kts
14-Feb-21 20:20 34.917700 -120.312146 15 4847ft 68kts
14-Feb-21 20:20 34.922975 -120.287799 67 5261ft 104kts
14-Feb-21 20:22 34.932091 -120.244974 58 5721ft 117kts
14-Feb-21 20:22 34.940245 -120.213195 58 6035ft 119kts
14-Feb-21 20:23 34.950151 -120.174262 58 6413ft 120kts
14-Feb-21 20:25 34.961383 -120.129121 58 6850ft 119kts
14-Feb-21 20:25 34.969089 -120.097350 58 7158ft 119kts
14-Feb-21 20:26 34.981515 -120.062660 46 7431ft 118kts
14-Feb-21 20:27 34.996667 -120.028286 46 7420ft 126kts
14-Feb-21 20:28 35.012078 -119.997254 38 7416ft 124kts
14-Feb-21 20:29 35.031372 -119.964803 38 7415ft 124kts
14-Feb-21 20:30 35.050457 -119.932439 38 7477ft 123kts
14-Feb-21 20:31 35.070219 -119.899128 38 7479ft 123kts
14-Feb-21 20:32 35.089593 -119.866494 38 7480ft 123kts
14-Feb-21 20:33 35.108324 -119.834727 38 7486ft 120kts
14-Feb-21 20:34 35.124350 -119.799679 61 7485ft 131kts
14-Feb-21 20:35 35.134427 -119.759782 55 7482ft 129kts
14-Feb-21 20:36 35.146995 -119.720277 52 7485ft 126kts
14-Feb-21 20:37 35.160140 -119.682739 50 7490ft 123kts
14-Feb-21 20:38 35.173956 -119.644885 50 7495ft 122kts
14-Feb-21 20:39 35.187811 -119.607515 49 7499ft 121kts
14-Feb-21 20:40 35.201506 -119.570978 46 7502ft 116kts
14-Feb-21 20:41 35.224125 -119.545480 29 6660ft 114kts
14-Feb-21 20:42 35.239533 -119.506112 53 5625ft 133kts
14-Feb-21 20:43 35.255165 -119.466459 52 4741ft 145kts
14-Feb-21 20:44 35.274643 -119.423002 52 3553ft 129kts
14-Feb-21 20:45 35.290162 -119.387016 52 3593ft 118kts
14-Feb-21 20:46 35.305528 -119.351288 52 3593ft 118kts
14-Feb-21 20:47 35.320821 -119.315748 52 3592ft 118kts
14-Feb-21 20:48 35.336159 -119.280131 52 3592ft 118kts
14-Feb-21 20:49 35.351576 -119.244379 52 3592ft 117kts
14-Feb-21 20:50 35.366853 -119.209001 52 3592ft 117kts
14-Feb-21 20:51 35.382161 -119.173649 52 3594ft 117kts
14-Feb-21 20:52 35.397173 -119.138829 54 3343ft 119kts
14-Feb-21 20:53 35.411699 -119.105337 57 2397ft 111kts
14-Feb-21 20:54 35.412824 -119.071674 140 1708ft 104kts
14-Feb-21 20:55 35.410130 -119.046660 40 1215ft 78kts
14-Feb-21 20:56 35.426909 -119.047836 316 615ft 70kts
14-Feb-21 20:57 35.435786 -119.058451 338 489ft 16kts
14-Feb-21 20:58 35.436687 -119.057635 77 494ft 6kts
14-Feb-21 20:59 35.434471 -119.054696 135 492ft 22kts
14-Feb-21 21:00 35.430265 -119.049649 132 491ft 23kts
14-Feb-21 21:01 35.429661 -119.046424 26 495ft 12kts
14-Feb-21 21:02 35.429787 -119.046548 238 495ft 0kts
14-Feb-21 21:03 35.429787 -119.046548 238 495ft 0kts
14-Feb-21 21:04 35.429787 -119.046548 238 495ft 0kts

Navigation Log

Ident Type
Flight plan parsing failed, navigation log unavailable